| time (UTC) | temp C | wind direction | speed KPH | gust KPH | rain 1hr cm | rain 24hr cm | rain mn cm | humidity % | barometer mb |
| 20260507123953 | 16 | 352 | 4.8 | 0.0 | 0.00 | 0.00 | 0.00 | 57 | 1013.8 |
| 20260507123818 | 16 | 352 | 4.8 | 0.0 | 0.00 | 0.00 | 0.00 | 57 | 1013.8 |
| 20260507113933 | 15 | 6 | 4.8 | 0.0 | 0.00 | 0.00 | 0.00 | 62 | 1014.5 |
| 20260507105109 | 13 | 359 | 6.4 | 0.0 | 0.00 | 0.00 | 0.00 | 68 | 1015.0 |
| 20260507095923 | 12 | 351 | 6.4 | 0.0 | 0.00 | 0.00 | 0.00 | 75 | 1015.1 |
| 20260507090133 | 12 | 351 | 6.4 | 0.0 | 0.00 | 0.00 | 0.00 | 75 | 1015.1 |
| 20260507081218 | 11 | 352 | 4.8 | 0.0 | 0.00 | 0.00 | 0.00 | 82 | 1015.2 |
| 20260507071553 | 9 | 338 | 4.8 | 0.0 | 0.00 | 0.00 | 0.00 | 91 | 1015.3 |
| 20260507061938 | 7 | 327 | 4.8 | 0.0 | 0.00 | 0.00 | 0.00 | 95 | 1014.9 |
| 20260507052439 | 6 | 303 | 3.2 | 0.0 | 0.00 | 0.00 | 0.00 | 98 | 1014.3 |
| 20260507042536 | 6 | 295 | 3.2 | 0.0 | 0.00 | 0.00 | 0.00 | 99 | 1014.0 |
| 20260507033353 | 6 | 297 | 3.2 | 0.0 | 0.00 | 0.00 | 0.00 | 99 | 1013.7 |
| 20260507024454 | 6 | 303 | 3.2 | 0.0 | 0.00 | 0.00 | 0.00 | 99 | 1013.6 |
| 20260507015050 | 6 | 285 | 1.6 | 0.0 | 0.00 | 0.00 | 0.00 | 99 | 1013.8 |
| 20260507005143 | 7 | 331 | 3.2 | 0.0 | 0.00 | 0.00 | 0.00 | 96 | 1013.1 |
| 20260506235254 | 7 | 302 | 3.2 | 0.0 | 0.00 | 0.00 | 0.00 | 95 | 1013.1 |
| 20260506230014 | 7 | 302 | 3.2 | 0.0 | 0.00 | 0.00 | 0.00 | 95 | 1013.1 |
| 20260506220714 | 8 | 292 | 3.2 | 0.0 | 0.00 | 0.00 | 0.00 | 93 | 1012.6 |
| 20260506211230 | 9 | 296 | 3.2 | 0.0 | 0.00 | 0.00 | 0.00 | 89 | 1012.4 |
| 20260506201408 | 10 | 244 | 3.2 | 0.0 | 0.00 | 0.00 | 0.00 | 85 | 1012.0 |
| 20260506192313 | 11 | 226 | 3.2 | 0.0 | 0.00 | 0.00 | 0.00 | 82 | 1011.2 |
| 20260506183045 | 11 | 302 | 6.4 | 0.0 | 0.00 | 0.00 | 0.00 | 77 | 1010.6 |
| 20260506173958 | 13 | 245 | 4.8 | 0.0 | 0.00 | 0.00 | 0.00 | 69 | 1009.6 |
| 20260506165053 | 14 | 210 | 6.4 | 0.0 | 0.00 | 0.03 | 0.00 | 64 | 1009.3 |
| 20260506155120 | 13 | 197 | 8.0 | 0.0 | 0.00 | 0.03 | 0.00 | 70 | 1009.5 |
| 20260506145505 | 12 | 191 | 11.3 | 0.0 | 0.00 | 0.03 | 0.00 | 76 | 1010.3 |
| 20260506135852 | 13 | 165 | 9.7 | 0.0 | 0.05 | 0.08 | 0.00 | 68 | 1010.3 |
| 20260506125935 | 12 | 166 | 8.0 | 0.0 | 0.00 | 0.15 | 0.00 | 77 | 1010.3 |